sensor_id;sensor_type;location;lat;lon;timestamp;P1;durP1;ratioP1;P2;durP2;ratioP2
45540;SDS011;31265;49.680;8.608;2024-03-22T00:02:01;7.25;;;3.70;;
45540;SDS011;31265;49.680;8.608;2024-03-22T00:04:29;6.60;;;2.72;;
45540;SDS011;31265;49.680;8.608;2024-03-22T00:06:57;8.20;;;3.70;;
45540;SDS011;31265;49.680;8.608;2024-03-22T00:09:24;7.20;;;3.40;;
45540;SDS011;31265;49.680;8.608;2024-03-22T00:11:51;7.57;;;3.47;;
45540;SDS011;31265;49.680;8.608;2024-03-22T00:14:20;8.15;;;4.15;;
45540;SDS011;31265;49.680;8.608;2024-03-22T00:16:50;7.13;;;3.22;;
45540;SDS011;31265;49.680;8.608;2024-03-22T00:19:17;7.10;;;3.45;;
45540;SDS011;31265;49.680;8.608;2024-03-22T00:21:44;7.45;;;3.42;;
45540;SDS011;31265;49.680;8.608;2024-03-22T00:24:11;10.35;;;3.20;;
45540;SDS011;31265;49.680;8.608;2024-03-22T00:26:37;9.95;;;3.90;;
45540;SDS011;31265;49.680;8.608;2024-03-22T00:29:05;11.85;;;4.60;;
45540;SDS011;31265;49.680;8.608;2024-03-22T00:31:31;5.53;;;2.67;;
45540;SDS011;31265;49.680;8.608;2024-03-22T00:34:00;6.28;;;3.22;;
45540;SDS011;31265;49.680;8.608;2024-03-22T00:36:27;5.95;;;2.85;;
45540;SDS011;31265;49.680;8.608;2024-03-22T00:38:56;10.43;;;3.65;;
45540;SDS011;31265;49.680;8.608;2024-03-22T00:41:23;6.60;;;3.22;;
45540;SDS011;31265;49.680;8.608;2024-03-22T00:43:51;8.65;;;4.22;;
45540;SDS011;31265;49.680;8.608;2024-03-22T00:46:17;6.35;;;3.28;;
45540;SDS011;31265;49.680;8.608;2024-03-22T00:48:45;6.82;;;3.55;;
45540;SDS011;31265;49.680;8.608;2024-03-22T00:51:14;6.97;;;4.15;;
45540;SDS011;31265;49.680;8.608;2024-03-22T00:53:42;7.47;;;4.67;;
45540;SDS011;31265;49.680;8.608;2024-03-22T00:56:08;8.50;;;3.35;;
45540;SDS011;31265;49.680;8.608;2024-03-22T00:58:36;7.57;;;3.08;;
45540;SDS011;31265;49.680;8.608;2024-03-22T01:01:02;8.57;;;3.28;;
45540;SDS011;31265;49.680;8.608;2024-03-22T01:03:30;11.95;;;3.33;;
45540;SDS011;31265;49.680;8.608;2024-03-22T01:05:56;9.38;;;3.75;;
45540;SDS011;31265;49.680;8.608;2024-03-22T01:08:25;6.80;;;3.13;;
45540;SDS011;31265;49.680;8.608;2024-03-22T01:10:52;5.80;;;2.83;;
45540;SDS011;31265;49.680;8.608;2024-03-22T01:13:19;8.02;;;3.80;;
45540;SDS011;31265;49.680;8.608;2024-03-22T01:15:46;6.45;;;2.72;;
45540;SDS011;31265;49.680;8.608;2024-03-22T01:18:14;6.28;;;2.60;;
45540;SDS011;31265;49.680;8.608;2024-03-22T01:20:42;7.93;;;3.30;;
45540;SDS011;31265;49.680;8.608;2024-03-22T01:23:10;6.70;;;3.45;;
45540;SDS011;31265;49.680;8.608;2024-03-22T01:25:38;6.65;;;3.33;;
45540;SDS011;31265;49.680;8.608;2024-03-22T01:28:05;12.68;;;4.35;;
45540;SDS011;31265;49.680;8.608;2024-03-22T01:30:33;11.38;;;3.88;;
45540;SDS011;31265;49.680;8.608;2024-03-22T01:33:02;10.73;;;4.70;;
45540;SDS011;31265;49.680;8.608;2024-03-22T01:35:29;10.32;;;4.25;;
45540;SDS011;31265;49.680;8.608;2024-03-22T01:37:58;9.07;;;4.47;;
45540;SDS011;31265;49.680;8.608;2024-03-22T01:40:24;8.13;;;4.00;;
45540;SDS011;31265;49.680;8.608;2024-03-22T01:42:54;11.48;;;4.40;;
45540;SDS011;31265;49.680;8.608;2024-03-22T01:45:22;10.85;;;4.43;;
45540;SDS011;31265;49.680;8.608;2024-03-22T01:47:50;5.53;;;3.40;;
45540;SDS011;31265;49.680;8.608;2024-03-22T01:50:20;6.38;;;3.60;;
45540;SDS011;31265;49.680;8.608;2024-03-22T01:52:47;8.88;;;3.83;;
45540;SDS011;31265;49.680;8.608;2024-03-22T01:55:14;13.07;;;4.95;;
45540;SDS011;31265;49.680;8.608;2024-03-22T01:57:46;8.55;;;4.18;;
45540;SDS011;31265;49.680;8.608;2024-03-22T02:00:20;9.07;;;4.28;;
45540;SDS011;31265;49.680;8.608;2024-03-22T02:02:47;9.87;;;4.47;;
45540;SDS011;31265;49.680;8.608;2024-03-22T02:05:14;11.65;;;4.97;;
45540;SDS011;31265;49.680;8.608;2024-03-22T02:07:44;8.65;;;4.28;;
45540;SDS011;31265;49.680;8.608;2024-03-22T02:10:11;8.10;;;3.58;;
45540;SDS011;31265;49.680;8.608;2024-03-22T02:12:40;11.40;;;4.57;;
45540;SDS011;31265;49.680;8.608;2024-03-22T02:15:08;9.05;;;4.28;;
45540;SDS011;31265;49.680;8.608;2024-03-22T02:17:38;8.65;;;3.92;;
45540;SDS011;31265;49.680;8.608;2024-03-22T02:20:05;8.32;;;4.05;;
45540;SDS011;31265;49.680;8.608;2024-03-22T02:22:33;8.77;;;3.92;;
45540;SDS011;31265;49.680;8.608;2024-03-22T02:25:02;8.23;;;3.97;;
45540;SDS011;31265;49.680;8.608;2024-03-22T02:27:30;9.68;;;4.78;;
45540;SDS011;31265;49.680;8.608;2024-03-22T02:29:57;9.23;;;4.45;;
45540;SDS011;31265;49.680;8.608;2024-03-22T02:32:24;8.30;;;4.32;;
45540;SDS011;31265;49.680;8.608;2024-03-22T02:34:50;15.15;;;4.63;;
45540;SDS011;31265;49.680;8.608;2024-03-22T02:37:18;12.32;;;5.28;;
45540;SDS011;31265;49.680;8.608;2024-03-22T02:39:44;12.05;;;5.93;;
45540;SDS011;31265;49.680;8.608;2024-03-22T02:42:13;12.55;;;5.25;;
45540;SDS011;31265;49.680;8.608;2024-03-22T02:44:39;12.77;;;4.85;;
45540;SDS011;31265;49.680;8.608;2024-03-22T02:49:36;16.15;;;5.70;;
45540;SDS011;31265;49.680;8.608;2024-03-22T02:52:04;13.48;;;5.53;;
45540;SDS011;31265;49.680;8.608;2024-03-22T02:54:31;9.50;;;4.05;;
45540;SDS011;31265;49.680;8.608;2024-03-22T02:56:59;11.85;;;5.00;;
45540;SDS011;31265;49.680;8.608;2024-03-22T02:59:30;12.65;;;4.97;;
45540;SDS011;31265;49.680;8.608;2024-03-22T03:01:57;14.60;;;4.97;;
45540;SDS011;31265;49.680;8.608;2024-03-22T03:04:23;12.93;;;4.60;;
45540;SDS011;31265;49.680;8.608;2024-03-22T03:06:51;12.85;;;5.22;;
45540;SDS011;31265;49.680;8.608;2024-03-22T03:09:17;11.45;;;5.03;;
45540;SDS011;31265;49.680;8.608;2024-03-22T03:11:44;14.10;;;5.53;;
45540;SDS011;31265;49.680;8.608;2024-03-22T03:14:11;11.77;;;5.93;;
45540;SDS011;31265;49.680;8.608;2024-03-22T03:16:40;11.32;;;5.22;;
45540;SDS011;31265;49.680;8.608;2024-03-22T03:19:06;14.02;;;5.70;;
45540;SDS011;31265;49.680;8.608;2024-03-22T03:21:33;9.00;;;4.65;;
45540;SDS011;31265;49.680;8.608;2024-03-22T03:24:00;11.73;;;4.80;;
45540;SDS011;31265;49.680;8.608;2024-03-22T03:26:28;11.45;;;4.82;;
45540;SDS011;31265;49.680;8.608;2024-03-22T03:28:54;14.15;;;4.78;;
45540;SDS011;31265;49.680;8.608;2024-03-22T03:31:22;9.73;;;4.65;;
45540;SDS011;31265;49.680;8.608;2024-03-22T03:33:50;8.63;;;4.80;;
45540;SDS011;31265;49.680;8.608;2024-03-22T03:36:18;9.63;;;5.20;;
45540;SDS011;31265;49.680;8.608;2024-03-22T03:38:45;15.18;;;5.82;;
45540;SDS011;31265;49.680;8.608;2024-03-22T03:41:13;11.40;;;5.22;;
45540;SDS011;31265;49.680;8.608;2024-03-22T03:43:40;13.43;;;5.72;;
45540;SDS011;31265;49.680;8.608;2024-03-22T03:46:07;13.20;;;5.03;;
45540;SDS011;31265;49.680;8.608;2024-03-22T03:48:35;13.85;;;6.07;;
45540;SDS011;31265;49.680;8.608;2024-03-22T03:51:04;16.85;;;5.50;;
45540;SDS011;31265;49.680;8.608;2024-03-22T03:53:31;14.57;;;5.70;;
45540;SDS011;31265;49.680;8.608;2024-03-22T03:55:58;14.02;;;5.30;;
45540;SDS011;31265;49.680;8.608;2024-03-22T03:58:25;10.98;;;5.38;;
45540;SDS011;31265;49.680;8.608;2024-03-22T04:00:52;10.70;;;3.80;;
45540;SDS011;31265;49.680;8.608;2024-03-22T04:03:18;12.43;;;5.30;;
45540;SDS011;31265;49.680;8.608;2024-03-22T04:05:46;13.38;;;5.63;;
45540;SDS011;31265;49.680;8.608;2024-03-22T04:08:14;10.00;;;4.80;;
45540;SDS011;31265;49.680;8.608;2024-03-22T04:10:42;11.30;;;5.40;;
45540;SDS011;31265;49.680;8.608;2024-03-22T04:13:19;12.80;;;5.32;;
45540;SDS011;31265;49.680;8.608;2024-03-22T04:15:48;12.52;;;5.32;;
45540;SDS011;31265;49.680;8.608;2024-03-22T04:18:14;10.80;;;4.97;;
45540;SDS011;31265;49.680;8.608;2024-03-22T04:20:42;15.18;;;5.35;;
45540;SDS011;31265;49.680;8.608;2024-03-22T04:23:09;11.88;;;5.15;;
45540;SDS011;31265;49.680;8.608;2024-03-22T04:25:38;15.15;;;5.45;;
45540;SDS011;31265;49.680;8.608;2024-03-22T04:28:05;9.90;;;5.05;;
45540;SDS011;31265;49.680;8.608;2024-03-22T04:30:32;15.07;;;5.80;;
45540;SDS011;31265;49.680;8.608;2024-03-22T04:32:59;14.40;;;5.32;;
45540;SDS011;31265;49.680;8.608;2024-03-22T04:35:26;14.70;;;5.82;;
45540;SDS011;31265;49.680;8.608;2024-03-22T04:37:53;14.10;;;4.97;;
45540;SDS011;31265;49.680;8.608;2024-03-22T04:40:20;15.50;;;5.22;;
45540;SDS011;31265;49.680;8.608;2024-03-22T04:42:49;11.77;;;5.35;;
45540;SDS011;31265;49.680;8.608;2024-03-22T04:45:17;11.65;;;5.93;;
45540;SDS011;31265;49.680;8.608;2024-03-22T04:47:44;10.77;;;4.80;;
45540;SDS011;31265;49.680;8.608;2024-03-22T04:50:10;10.77;;;5.20;;
45540;SDS011;31265;49.680;8.608;2024-03-22T04:52:39;11.00;;;4.33;;
45540;SDS011;31265;49.680;8.608;2024-03-22T04:55:06;10.20;;;4.90;;
45540;SDS011;31265;49.680;8.608;2024-03-22T04:57:34;12.30;;;5.13;;
45540;SDS011;31265;49.680;8.608;2024-03-22T05:00:02;15.63;;;5.32;;
45540;SDS011;31265;49.680;8.608;2024-03-22T05:02:33;10.68;;;4.65;;
45540;SDS011;31265;49.680;8.608;2024-03-22T05:04:59;13.50;;;5.68;;
45540;SDS011;31265;49.680;8.608;2024-03-22T05:07:28;12.50;;;5.13;;
45540;SDS011;31265;49.680;8.608;2024-03-22T05:09:54;12.30;;;5.45;;
45540;SDS011;31265;49.680;8.608;2024-03-22T05:12:22;18.15;;;5.57;;
45540;SDS011;31265;49.680;8.608;2024-03-22T05:14:49;14.30;;;4.82;;
45540;SDS011;31265;49.680;8.608;2024-03-22T05:17:19;9.93;;;4.93;;
45540;SDS011;31265;49.680;8.608;2024-03-22T05:19:46;12.18;;;5.13;;
45540;SDS011;31265;49.680;8.608;2024-03-22T05:22:13;13.57;;;4.82;;
45540;SDS011;31265;49.680;8.608;2024-03-22T05:24:40;15.50;;;5.90;;
45540;SDS011;31265;49.680;8.608;2024-03-22T05:27:07;11.25;;;5.00;;
45540;SDS011;31265;49.680;8.608;2024-03-22T05:29:35;12.38;;;5.43;;
45540;SDS011;31265;49.680;8.608;2024-03-22T05:32:03;13.50;;;5.43;;
45540;SDS011;31265;49.680;8.608;2024-03-22T05:34:31;11.73;;;4.97;;
45540;SDS011;31265;49.680;8.608;2024-03-22T05:36:58;17.20;;;5.75;;
45540;SDS011;31265;49.680;8.608;2024-03-22T05:39:25;16.15;;;5.50;;
45540;SDS011;31265;49.680;8.608;2024-03-22T05:41:54;12.20;;;4.93;;
45540;SDS011;31265;49.680;8.608;2024-03-22T05:44:22;15.43;;;5.75;;
45540;SDS011;31265;49.680;8.608;2024-03-22T05:46:49;13.65;;;4.68;;
45540;SDS011;31265;49.680;8.608;2024-03-22T05:49:16;9.80;;;4.93;;
45540;SDS011;31265;49.680;8.608;2024-03-22T05:51:45;11.85;;;5.60;;
45540;SDS011;31265;49.680;8.608;2024-03-22T05:54:12;9.48;;;4.68;;
45540;SDS011;31265;49.680;8.608;2024-03-22T05:56:40;10.93;;;4.68;;
45540;SDS011;31265;49.680;8.608;2024-03-22T05:59:06;12.35;;;5.07;;
45540;SDS011;31265;49.680;8.608;2024-03-22T06:01:34;13.45;;;4.88;;
45540;SDS011;31265;49.680;8.608;2024-03-22T06:04:01;10.98;;;4.90;;
45540;SDS011;31265;49.680;8.608;2024-03-22T06:06:28;9.00;;;4.90;;
45540;SDS011;31265;49.680;8.608;2024-03-22T06:08:56;12.48;;;4.85;;
45540;SDS011;31265;49.680;8.608;2024-03-22T06:11:26;10.57;;;5.60;;
45540;SDS011;31265;49.680;8.608;2024-03-22T06:13:52;10.88;;;4.85;;
45540;SDS011;31265;49.680;8.608;2024-03-22T06:16:20;12.52;;;4.55;;
45540;SDS011;31265;49.680;8.608;2024-03-22T06:18:46;10.48;;;5.47;;
45540;SDS011;31265;49.680;8.608;2024-03-22T06:21:15;11.10;;;5.07;;
45540;SDS011;31265;49.680;8.608;2024-03-22T06:23:41;12.80;;;5.15;;
45540;SDS011;31265;49.680;8.608;2024-03-22T06:26:10;12.63;;;5.43;;
45540;SDS011;31265;49.680;8.608;2024-03-22T06:28:36;9.73;;;5.28;;
45540;SDS011;31265;49.680;8.608;2024-03-22T06:31:04;11.80;;;5.85;;
45540;SDS011;31265;49.680;8.608;2024-03-22T06:33:30;9.75;;;4.88;;
45540;SDS011;31265;49.680;8.608;2024-03-22T06:35:58;18.20;;;5.72;;
45540;SDS011;31265;49.680;8.608;2024-03-22T06:38:24;9.40;;;4.18;;
45540;SDS011;31265;49.680;8.608;2024-03-22T06:40:52;12.40;;;6.30;;
45540;SDS011;31265;49.680;8.608;2024-03-22T06:43:20;16.17;;;5.75;;
45540;SDS011;31265;49.680;8.608;2024-03-22T06:45:47;10.05;;;4.82;;
45540;SDS011;31265;49.680;8.608;2024-03-22T06:48:14;11.05;;;4.90;;
45540;SDS011;31265;49.680;8.608;2024-03-22T06:50:41;9.85;;;5.05;;
45540;SDS011;31265;49.680;8.608;2024-03-22T06:53:08;15.98;;;5.22;;
45540;SDS011;31265;49.680;8.608;2024-03-22T06:55:36;10.35;;;4.72;;
45540;SDS011;31265;49.680;8.608;2024-03-22T06:58:04;8.73;;;4.60;;
45540;SDS011;31265;49.680;8.608;2024-03-22T07:00:33;11.88;;;5.05;;
45540;SDS011;31265;49.680;8.608;2024-03-22T07:03:00;10.90;;;4.72;;
45540;SDS011;31265;49.680;8.608;2024-03-22T07:05:28;12.52;;;5.05;;
45540;SDS011;31265;49.680;8.608;2024-03-22T07:07:55;9.15;;;4.95;;
45540;SDS011;31265;49.680;8.608;2024-03-22T07:10:23;9.07;;;5.55;;
45540;SDS011;31265;49.680;8.608;2024-03-22T07:12:54;7.72;;;4.47;;
45540;SDS011;31265;49.680;8.608;2024-03-22T07:15:22;9.55;;;4.95;;
45540;SDS011;31265;49.680;8.608;2024-03-22T07:17:51;7.63;;;3.83;;
45540;SDS011;31265;49.680;8.608;2024-03-22T07:20:19;13.30;;;5.38;;
45540;SDS011;31265;49.680;8.608;2024-03-22T07:22:45;10.63;;;4.82;;
45540;SDS011;31265;49.680;8.608;2024-03-22T07:25:13;8.82;;;4.15;;
45540;SDS011;31265;49.680;8.608;2024-03-22T07:27:42;9.47;;;4.90;;
45540;SDS011;31265;49.680;8.608;2024-03-22T07:30:10;9.40;;;4.30;;
45540;SDS011;31265;49.680;8.608;2024-03-22T07:32:37;9.20;;;4.03;;
45540;SDS011;31265;49.680;8.608;2024-03-22T07:35:09;9.48;;;4.32;;
45540;SDS011;31265;49.680;8.608;2024-03-22T07:37:35;8.55;;;4.00;;
45540;SDS011;31265;49.680;8.608;2024-03-22T07:40:05;8.55;;;4.95;;
45540;SDS011;31265;49.680;8.608;2024-03-22T07:42:33;8.55;;;4.82;;
45540;SDS011;31265;49.680;8.608;2024-03-22T07:45:00;9.43;;;3.95;;
45540;SDS011;31265;49.680;8.608;2024-03-22T07:47:27;9.63;;;4.65;;
45540;SDS011;31265;49.680;8.608;2024-03-22T07:49:55;9.93;;;4.57;;
45540;SDS011;31265;49.680;8.608;2024-03-22T07:52:23;8.50;;;4.50;;
45540;SDS011;31265;49.680;8.608;2024-03-22T07:54:51;8.30;;;3.85;;
45540;SDS011;31265;49.680;8.608;2024-03-22T07:57:18;9.55;;;4.47;;
45540;SDS011;31265;49.680;8.608;2024-03-22T07:59:46;8.43;;;3.97;;
45540;SDS011;31265;49.680;8.608;2024-03-22T08:02:13;9.50;;;5.05;;
45540;SDS011;31265;49.680;8.608;2024-03-22T08:04:42;8.90;;;4.47;;
45540;SDS011;31265;49.680;8.608;2024-03-22T08:07:08;8.15;;;4.78;;
45540;SDS011;31265;49.680;8.608;2024-03-22T08:09:38;10.23;;;4.18;;
45540;SDS011;31265;49.680;8.608;2024-03-22T08:12:05;7.93;;;3.70;;
45540;SDS011;31265;49.680;8.608;2024-03-22T08:14:35;9.15;;;4.47;;
45540;SDS011;31265;49.680;8.608;2024-03-22T08:17:03;6.65;;;3.53;;
45540;SDS011;31265;49.680;8.608;2024-03-22T08:19:33;6.90;;;4.10;;
45540;SDS011;31265;49.680;8.608;2024-03-22T08:22:00;10.50;;;4.63;;
45540;SDS011;31265;49.680;8.608;2024-03-22T08:24:28;7.88;;;3.50;;
45540;SDS011;31265;49.680;8.608;2024-03-22T08:26:56;13.05;;;5.00;;
45540;SDS011;31265;49.680;8.608;2024-03-22T08:29:26;10.40;;;4.30;;
45540;SDS011;31265;49.680;8.608;2024-03-22T08:31:52;5.78;;;3.45;;
45540;SDS011;31265;49.680;8.608;2024-03-22T08:34:20;12.30;;;4.93;;
45540;SDS011;31265;49.680;8.608;2024-03-22T08:36:47;8.25;;;4.07;;
45540;SDS011;31265;49.680;8.608;2024-03-22T08:39:16;10.10;;;5.03;;
45540;SDS011;31265;49.680;8.608;2024-03-22T08:41:43;8.43;;;3.70;;
45540;SDS011;31265;49.680;8.608;2024-03-22T08:44:12;10.00;;;4.43;;
45540;SDS011;31265;49.680;8.608;2024-03-22T08:46:43;8.57;;;4.82;;
45540;SDS011;31265;49.680;8.608;2024-03-22T08:49:10;9.15;;;4.30;;
45540;SDS011;31265;49.680;8.608;2024-03-22T08:51:39;9.57;;;4.38;;
45540;SDS011;31265;49.680;8.608;2024-03-22T08:54:10;6.68;;;3.80;;
45540;SDS011;31265;49.680;8.608;2024-03-22T08:56:36;7.20;;;3.72;;
45540;SDS011;31265;49.680;8.608;2024-03-22T08:59:04;6.50;;;4.00;;
45540;SDS011;31265;49.680;8.608;2024-03-22T09:01:35;10.73;;;4.32;;
45540;SDS011;31265;49.680;8.608;2024-03-22T09:04:03;7.43;;;3.85;;
45540;SDS011;31265;49.680;8.608;2024-03-22T09:06:30;8.32;;;3.78;;
45540;SDS011;31265;49.680;8.608;2024-03-22T09:08:59;8.40;;;4.03;;
45540;SDS011;31265;49.680;8.608;2024-03-22T09:11:25;7.63;;;3.63;;
45540;SDS011;31265;49.680;8.608;2024-03-22T09:13:53;9.00;;;3.75;;
45540;SDS011;31265;49.680;8.608;2024-03-22T09:16:20;6.80;;;3.92;;
45540;SDS011;31265;49.680;8.608;2024-03-22T09:18:49;8.75;;;3.90;;
45540;SDS011;31265;49.680;8.608;2024-03-22T09:21:16;8.45;;;4.35;;
45540;SDS011;31265;49.680;8.608;2024-03-22T09:23:43;7.45;;;4.13;;
45540;SDS011;31265;49.680;8.608;2024-03-22T09:26:10;7.45;;;3.72;;
45540;SDS011;31265;49.680;8.608;2024-03-22T09:28:37;7.63;;;3.67;;
45540;SDS011;31265;49.680;8.608;2024-03-22T09:31:04;6.72;;;3.67;;
45540;SDS011;31265;49.680;8.608;2024-03-22T09:33:34;11.80;;;4.40;;
45540;SDS011;31265;49.680;8.608;2024-03-22T09:36:05;8.52;;;3.90;;
45540;SDS011;31265;49.680;8.608;2024-03-22T09:40:59;8.73;;;3.30;;
45540;SDS011;31265;49.680;8.608;2024-03-22T09:43:28;7.73;;;3.63;;
45540;SDS011;31265;49.680;8.608;2024-03-22T09:45:56;6.68;;;3.38;;
45540;SDS011;31265;49.680;8.608;2024-03-22T09:48:27;7.82;;;3.85;;
45540;SDS011;31265;49.680;8.608;2024-03-22T09:50:57;7.30;;;3.60;;
45540;SDS011;31265;49.680;8.608;2024-03-22T09:53:45;7.68;;;3.58;;
45540;SDS011;31265;49.680;8.608;2024-03-22T09:56:15;5.70;;;3.47;;
45540;SDS011;31265;49.680;8.608;2024-03-22T09:58:47;6.63;;;3.55;;
45540;SDS011;31265;49.680;8.608;2024-03-22T10:01:14;6.28;;;2.97;;
45540;SDS011;31265;49.680;8.608;2024-03-22T10:06:11;5.53;;;2.88;;
45540;SDS011;31265;49.680;8.608;2024-03-22T10:08:38;6.40;;;2.95;;
45540;SDS011;31265;49.680;8.608;2024-03-22T10:11:07;8.13;;;3.50;;
45540;SDS011;31265;49.680;8.608;2024-03-22T10:13:34;10.15;;;3.28;;
45540;SDS011;31265;49.680;8.608;2024-03-22T10:16:01;6.93;;;3.75;;
45540;SDS011;31265;49.680;8.608;2024-03-22T10:18:28;7.00;;;3.45;;
45540;SDS011;31265;49.680;8.608;2024-03-22T10:20:58;6.75;;;2.88;;
45540;SDS011;31265;49.680;8.608;2024-03-22T10:23:29;5.97;;;3.03;;
45540;SDS011;31265;49.680;8.608;2024-03-22T10:25:56;6.40;;;2.95;;
45540;SDS011;31265;49.680;8.608;2024-03-22T10:30:55;5.82;;;3.28;;
45540;SDS011;31265;49.680;8.608;2024-03-22T10:33:23;7.22;;;3.42;;
45540;SDS011;31265;49.680;8.608;2024-03-22T10:35:50;5.53;;;2.55;;
45540;SDS011;31265;49.680;8.608;2024-03-22T10:38:19;4.45;;;2.72;;
45540;SDS011;31265;49.680;8.608;2024-03-22T10:40:46;7.47;;;3.00;;
45540;SDS011;31265;49.680;8.608;2024-03-22T10:43:15;7.57;;;3.28;;
45540;SDS011;31265;49.680;8.608;2024-03-22T10:45:44;6.10;;;2.97;;
45540;SDS011;31265;49.680;8.608;2024-03-22T10:48:17;6.72;;;2.58;;
45540;SDS011;31265;49.680;8.608;2024-03-22T10:50:47;5.28;;;2.97;;
45540;SDS011;31265;49.680;8.608;2024-03-22T10:53:18;8.23;;;3.17;;
45540;SDS011;31265;49.680;8.608;2024-03-22T10:55:49;9.02;;;3.13;;
45540;SDS011;31265;49.680;8.608;2024-03-22T10:58:18;4.60;;;2.75;;
45540;SDS011;31265;49.680;8.608;2024-03-22T11:00:51;7.75;;;3.20;;
45540;SDS011;31265;49.680;8.608;2024-03-22T11:03:19;6.53;;;2.42;;
45540;SDS011;31265;49.680;8.608;2024-03-22T11:05:50;4.63;;;2.38;;
45540;SDS011;31265;49.680;8.608;2024-03-22T11:08:24;4.07;;;2.45;;
45540;SDS011;31265;49.680;8.608;2024-03-22T11:10:52;4.45;;;2.15;;
45540;SDS011;31265;49.680;8.608;2024-03-22T11:13:21;5.07;;;2.42;;
45540;SDS011;31265;49.680;8.608;2024-03-22T11:15:49;4.18;;;1.88;;
45540;SDS011;31265;49.680;8.608;2024-03-22T11:18:17;4.38;;;2.40;;
45540;SDS011;31265;49.680;8.608;2024-03-22T11:20:44;6.53;;;2.83;;
45540;SDS011;31265;49.680;8.608;2024-03-22T11:23:12;3.70;;;1.63;;
45540;SDS011;31265;49.680;8.608;2024-03-22T11:25:38;6.82;;;1.95;;
45540;SDS011;31265;49.680;8.608;2024-03-22T11:28:09;7.07;;;2.17;;
45540;SDS011;31265;49.680;8.608;2024-03-22T11:30:36;4.20;;;2.00;;
45540;SDS011;31265;49.680;8.608;2024-03-22T11:33:05;5.22;;;2.67;;
45540;SDS011;31265;49.680;8.608;2024-03-22T11:35:31;6.47;;;2.58;;
45540;SDS011;31265;49.680;8.608;2024-03-22T11:38:00;5.00;;;2.47;;
45540;SDS011;31265;49.680;8.608;2024-03-22T11:40:28;4.25;;;2.00;;
45540;SDS011;31265;49.680;8.608;2024-03-22T11:42:57;4.22;;;2.20;;
45540;SDS011;31265;49.680;8.608;2024-03-22T11:45:29;6.07;;;2.38;;
45540;SDS011;31265;49.680;8.608;2024-03-22T11:48:01;4.63;;;1.88;;
45540;SDS011;31265;49.680;8.608;2024-03-22T11:50:30;3.72;;;2.10;;
45540;SDS011;31265;49.680;8.608;2024-03-22T11:52:58;3.83;;;1.85;;
45540;SDS011;31265;49.680;8.608;2024-03-22T11:55:26;4.50;;;1.85;;
45540;SDS011;31265;49.680;8.608;2024-03-22T11:57:57;3.83;;;2.10;;
45540;SDS011;31265;49.680;8.608;2024-03-22T12:00:23;6.45;;;2.33;;
45540;SDS011;31265;49.680;8.608;2024-03-22T12:02:52;5.15;;;2.38;;
45540;SDS011;31265;49.680;8.608;2024-03-22T12:05:21;3.70;;;1.95;;
45540;SDS011;31265;49.680;8.608;2024-03-22T12:07:54;3.78;;;2.30;;
45540;SDS011;31265;49.680;8.608;2024-03-22T12:10:25;4.43;;;1.95;;
45540;SDS011;31265;49.680;8.608;2024-03-22T12:12:53;4.20;;;1.75;;
45540;SDS011;31265;49.680;8.608;2024-03-22T12:15:21;3.83;;;1.95;;
45540;SDS011;31265;49.680;8.608;2024-03-22T12:17:49;4.97;;;2.35;;
45540;SDS011;31265;49.680;8.608;2024-03-22T12:20:24;4.38;;;1.92;;
45540;SDS011;31265;49.680;8.608;2024-03-22T12:22:51;5.63;;;2.08;;
45540;SDS011;31265;49.680;8.608;2024-03-22T12:25:22;4.60;;;2.38;;
45540;SDS011;31265;49.680;8.608;2024-03-22T12:27:50;4.15;;;2.47;;
45540;SDS011;31265;49.680;8.608;2024-03-22T12:30:20;4.60;;;1.83;;
45540;SDS011;31265;49.680;8.608;2024-03-22T12:32:48;4.75;;;2.10;;
45540;SDS011;31265;49.680;8.608;2024-03-22T12:35:20;3.95;;;1.80;;
45540;SDS011;31265;49.680;8.608;2024-03-22T12:38:01;11.60;;;2.78;;
45540;SDS011;31265;49.680;8.608;2024-03-22T12:40:30;3.45;;;1.70;;
45540;SDS011;31265;49.680;8.608;2024-03-22T12:42:58;4.55;;;2.05;;
45540;SDS011;31265;49.680;8.608;2024-03-22T12:45:27;6.38;;;1.98;;
45540;SDS011;31265;49.680;8.608;2024-03-22T12:47:55;5.72;;;2.28;;
45540;SDS011;31265;49.680;8.608;2024-03-22T12:50:22;3.22;;;1.80;;
45540;SDS011;31265;49.680;8.608;2024-03-22T12:52:49;3.97;;;1.63;;
45540;SDS011;31265;49.680;8.608;2024-03-22T12:55:17;5.57;;;2.05;;
45540;SDS011;31265;49.680;8.608;2024-03-22T12:57:47;3.80;;;1.60;;
45540;SDS011;31265;49.680;8.608;2024-03-22T13:00:13;4.43;;;1.38;;
45540;SDS011;31265;49.680;8.608;2024-03-22T13:02:44;4.28;;;1.95;;
45540;SDS011;31265;49.680;8.608;2024-03-22T13:05:10;5.57;;;1.90;;
45540;SDS011;31265;49.680;8.608;2024-03-22T13:07:39;6.32;;;2.33;;
45540;SDS011;31265;49.680;8.608;2024-03-22T13:10:07;5.50;;;1.80;;
45540;SDS011;31265;49.680;8.608;2024-03-22T13:12:36;5.43;;;2.38;;
45540;SDS011;31265;49.680;8.608;2024-03-22T13:15:05;5.10;;;2.38;;
45540;SDS011;31265;49.680;8.608;2024-03-22T13:17:33;4.70;;;2.78;;
45540;SDS011;31265;49.680;8.608;2024-03-22T13:20:03;6.22;;;2.55;;
45540;SDS011;31265;49.680;8.608;2024-03-22T13:22:37;3.92;;;1.85;;
45540;SDS011;31265;49.680;8.608;2024-03-22T13:25:05;6.72;;;2.25;;
45540;SDS011;31265;49.680;8.608;2024-03-22T13:27:36;4.47;;;2.30;;
45540;SDS011;31265;49.680;8.608;2024-03-22T13:30:07;4.07;;;1.67;;
45540;SDS011;31265;49.680;8.608;2024-03-22T13:32:36;4.95;;;2.20;;
45540;SDS011;31265;49.680;8.608;2024-03-22T13:35:05;4.47;;;2.20;;
45540;SDS011;31265;49.680;8.608;2024-03-22T13:37:34;5.25;;;2.20;;
45540;SDS011;31265;49.680;8.608;2024-03-22T13:40:01;5.20;;;2.30;;
45540;SDS011;31265;49.680;8.608;2024-03-22T13:42:29;5.80;;;2.10;;
45540;SDS011;31265;49.680;8.608;2024-03-22T13:44:55;4.53;;;2.22;;
45540;SDS011;31265;49.680;8.608;2024-03-22T13:47:25;6.65;;;2.33;;
45540;SDS011;31265;49.680;8.608;2024-03-22T13:49:53;4.97;;;2.33;;
45540;SDS011;31265;49.680;8.608;2024-03-22T13:52:22;2.97;;;1.30;;
45540;SDS011;31265;49.680;8.608;2024-03-22T13:54:54;4.47;;;1.92;;
45540;SDS011;31265;49.680;8.608;2024-03-22T13:57:21;3.63;;;2.05;;
45540;SDS011;31265;49.680;8.608;2024-03-22T13:59:50;7.55;;;2.65;;
45540;SDS011;31265;49.680;8.608;2024-03-22T14:02:19;4.43;;;1.90;;
45540;SDS011;31265;49.680;8.608;2024-03-22T14:04:47;4.05;;;1.70;;
45540;SDS011;31265;49.680;8.608;2024-03-22T14:07:14;5.75;;;1.83;;
45540;SDS011;31265;49.680;8.608;2024-03-22T14:09:41;4.20;;;2.50;;
45540;SDS011;31265;49.680;8.608;2024-03-22T14:12:16;5.80;;;2.30;;
45540;SDS011;31265;49.680;8.608;2024-03-22T14:14:43;5.70;;;2.73;;
45540;SDS011;31265;49.680;8.608;2024-03-22T14:17:10;4.70;;;2.38;;
45540;SDS011;31265;49.680;8.608;2024-03-22T14:19:38;4.75;;;2.20;;
45540;SDS011;31265;49.680;8.608;2024-03-22T14:22:10;4.05;;;2.33;;
45540;SDS011;31265;49.680;8.608;2024-03-22T14:24:39;5.35;;;2.40;;
45540;SDS011;31265;49.680;8.608;2024-03-22T14:27:07;5.95;;;2.60;;
45540;SDS011;31265;49.680;8.608;2024-03-22T14:29:34;4.97;;;2.40;;
45540;SDS011;31265;49.680;8.608;2024-03-22T14:32:02;6.78;;;3.05;;
45540;SDS011;31265;49.680;8.608;2024-03-22T14:34:30;4.45;;;1.98;;
45540;SDS011;31265;49.680;8.608;2024-03-22T14:36:57;5.05;;;2.15;;
45540;SDS011;31265;49.680;8.608;2024-03-22T14:39:25;4.80;;;2.45;;
45540;SDS011;31265;49.680;8.608;2024-03-22T14:41:52;11.13;;;3.03;;
45540;SDS011;31265;49.680;8.608;2024-03-22T14:44:21;3.85;;;2.40;;
45540;SDS011;31265;49.680;8.608;2024-03-22T14:46:49;7.03;;;2.40;;
45540;SDS011;31265;49.680;8.608;2024-03-22T14:49:15;5.90;;;2.45;;
45540;SDS011;31265;49.680;8.608;2024-03-22T14:51:43;5.13;;;2.03;;
45540;SDS011;31265;49.680;8.608;2024-03-22T14:54:10;6.35;;;3.08;;
45540;SDS011;31265;49.680;8.608;2024-03-22T14:56:38;6.25;;;3.13;;
45540;SDS011;31265;49.680;8.608;2024-03-22T14:59:05;6.07;;;2.97;;